Time,TemperatureF,DewpointF,PressureIn,WindDirection,WindDirectionDegrees,WindSpeedMPH,WindSpeedGustMPH,Humidity,HourlyPrecipIn,Conditions,Clouds,dailyrainin,SolarRadiationWatts/m^2,SoftwareType,DateUTC
2018-11-19 00:04:53,52.0,50.5,30.05,ESE,112,6.9,11.0,95,0.00,,,0.00,0.00,meteobridge,2018-11-19 08:04:53,
2018-11-19 00:09:57,52.0,50.5,30.05,East,90,2.0,8.0,95,0.00,,,0.00,0.00,meteobridge,2018-11-19 08:09:57,
2018-11-19 00:14:59,52.0,50.5,30.05,ENE,71,2.0,6.0,95,0.00,,,0.00,0.00,meteobridge,2018-11-19 08:14:59,
2018-11-19 00:19:55,52.0,50.5,30.05,ENE,74,2.0,7.0,95,0.00,,,0.00,0.00,meteobridge,2018-11-19 08:19:55,
2018-11-19 00:24:53,52.0,50.5,30.05,East,99,2.0,3.0,95,0.00,,,0.00,0.00,meteobridge,2018-11-19 08:24:53,
2018-11-19 00:29:53,51.8,50.4,30.05,NE,55,2.0,3.0,95,0.00,,,0.00,0.00,meteobridge,2018-11-19 08:29:53,
2018-11-19 00:34:51,51.6,50.2,30.05,East,101,6.0,7.0,95,0.00,,,0.00,0.00,meteobridge,2018-11-19 08:34:51,
2018-11-19 00:39:55,51.6,50.2,30.04,ENE,61,8.1,11.0,95,0.00,,,0.00,0.00,meteobridge,2018-11-19 08:39:55,
2018-11-19 00:44:55,51.6,50.2,30.04,East,89,8.1,13.0,95,0.00,,,0.00,0.00,meteobridge,2018-11-19 08:44:55,
2018-11-19 00:49:53,51.8,50.4,30.04,East,85,6.9,15.0,95,0.00,,,0.00,0.00,meteobridge,2018-11-19 08:49:53,
2018-11-19 00:54:53,51.8,50.4,30.04,East,93,2.9,14.0,95,0.00,,,0.00,0.00,meteobridge,2018-11-19 08:54:53,
2018-11-19 00:59:53,51.8,50.4,30.05,East,93,6.0,11.0,95,0.00,,,0.00,0.00,meteobridge,2018-11-19 08:59:53,
2018-11-19 01:04:53,51.6,50.2,30.05,East,95,4.9,5.0,95,0.00,,,0.00,0.00,meteobridge,2018-11-19 09:04:53,
2018-11-19 01:09:53,51.4,50.0,30.04,East,100,4.9,8.0,95,0.00,,,0.00,0.00,meteobridge,2018-11-19 09:09:53,
2018-11-19 01:14:51,51.4,50.0,30.04,East,82,4.9,8.0,95,0.00,,,0.00,0.00,meteobridge,2018-11-19 09:14:51,
2018-11-19 01:19:57,51.4,50.4,30.04,East,81,6.9,8.0,96,0.00,,,0.00,0.00,meteobridge,2018-11-19 09:19:57,
2018-11-19 01:24:59,51.4,50.4,30.04,East,89,2.0,9.0,96,0.00,,,0.00,0.00,meteobridge,2018-11-19 09:24:59,
2018-11-19 01:29:55,51.3,50.2,30.04,ENE,70,4.0,10.0,96,0.00,,,0.00,0.00,meteobridge,2018-11-19 09:29:55,
2018-11-19 01:34:55,51.3,50.2,30.04,ENE,64,4.9,8.0,96,0.00,,,0.00,0.00,meteobridge,2018-11-19 09:34:55,
2018-11-19 01:39:57,51.3,50.2,30.04,WNW,293,0.9,8.0,96,0.00,,,0.00,0.00,meteobridge,2018-11-19 09:39:57,
2018-11-19 01:44:55,51.3,50.2,30.05,South,173,0.0,3.0,96,0.00,,,0.00,0.00,meteobridge,2018-11-19 09:44:55,
2018-11-19 01:49:59,51.3,50.2,30.05,ESE,113,2.0,4.0,96,0.00,,,0.00,0.00,meteobridge,2018-11-19 09:49:59,
2018-11-19 01:54:47,51.1,50.0,30.05,ESE,109,0.9,3.0,96,0.00,,,0.00,0.00,meteobridge,2018-11-19 09:54:47,
2018-11-19 01:59:59,51.1,50.0,30.05,SSE,148,0.0,2.0,96,0.00,,,0.00,0.00,meteobridge,2018-11-19 09:59:59,
2018-11-19 02:04:55,50.9,49.8,30.05,SE,136,4.0,5.0,96,0.00,,,0.00,0.00,meteobridge,2018-11-19 10:04:55,
2018-11-19 02:09:57,50.9,49.8,30.05,ESE,116,11.0,12.0,96,0.00,,,0.00,0.00,meteobridge,2018-11-19 10:09:57,
2018-11-19 02:14:55,51.1,50.2,30.05,SE,128,4.9,13.0,97,0.00,,,0.00,0.00,meteobridge,2018-11-19 10:14:55,
2018-11-19 02:19:55,51.1,50.0,30.06,SE,134,6.0,6.0,96,0.00,,,0.00,0.00,meteobridge,2018-11-19 10:19:55,
2018-11-19 02:24:55,51.1,50.0,30.06,SE,140,2.9,4.0,96,0.00,,,0.00,0.00,meteobridge,2018-11-19 10:24:55,
2018-11-19 02:29:55,51.1,50.0,30.06,East,100,6.0,7.0,96,0.00,,,0.00,0.00,meteobridge,2018-11-19 10:29:55,
2018-11-19 02:34:55,51.1,50.0,30.06,East,96,6.0,6.0,96,0.00,,,0.00,0.00,meteobridge,2018-11-19 10:34:55,
2018-11-19 02:39:51,51.1,49.6,30.06,ESE,110,4.0,5.0,95,0.00,,,0.00,0.00,meteobridge,2018-11-19 10:39:51,
2018-11-19 02:44:57,51.1,49.5,30.06,ESE,110,2.0,3.0,94,0.00,,,0.00,0.00,meteobridge,2018-11-19 10:44:57,
2018-11-19 02:49:59,51.1,49.5,30.06,ESE,110,2.0,3.0,94,0.00,,,0.00,0.00,meteobridge,2018-11-19 10:49:59,
2018-11-19 02:54:51,51.1,49.1,30.05,ESE,110,2.0,4.0,93,0.00,,,0.00,0.00,meteobridge,2018-11-19 10:54:51,
2018-11-19 02:59:57,51.1,48.9,30.05,ESE,110,0.9,2.0,92,0.00,,,0.00,0.00,meteobridge,2018-11-19 10:59:57,
2018-11-19 03:04:59,51.1,48.9,30.05,ESE,110,0.0,1.0,92,0.00,,,0.00,0.00,meteobridge,2018-11-19 11:04:59,
2018-11-19 03:09:51,51.1,48.9,30.05,ESE,110,0.0,0.0,92,0.00,,,0.00,0.00,meteobridge,2018-11-19 11:09:51,
2018-11-19 03:14:59,51.1,48.6,30.05,ESE,110,0.0,0.0,91,0.00,,,0.00,0.00,meteobridge,2018-11-19 11:14:59,
2018-11-19 03:19:51,51.1,48.6,30.05,ESE,110,0.0,0.0,91,0.00,,,0.00,0.00,meteobridge,2018-11-19 11:19:51,
2018-11-19 03:24:51,51.3,48.7,30.05,ESE,110,0.0,0.0,91,0.00,,,0.00,0.00,meteobridge,2018-11-19 11:24:51,
2018-11-19 03:29:55,51.4,48.9,30.05,ESE,109,2.0,3.0,91,0.00,,,0.00,0.00,meteobridge,2018-11-19 11:29:55,
2018-11-19 03:34:53,51.6,48.7,30.04,East,80,2.9,5.0,90,0.00,,,0.00,0.00,meteobridge,2018-11-19 11:34:53,
2018-11-19 03:39:59,51.8,49.3,30.04,ENE,76,4.0,7.0,91,0.00,,,0.00,0.00,meteobridge,2018-11-19 11:39:59,
2018-11-19 03:44:47,52.0,49.6,30.04,East,86,6.0,7.0,92,0.00,,,0.00,0.00,meteobridge,2018-11-19 11:44:47,
2018-11-19 03:49:59,52.0,50.0,30.04,East,94,6.0,8.0,93,0.00,,,0.00,0.00,meteobridge,2018-11-19 11:49:59,
2018-11-19 03:54:53,51.6,49.6,30.04,East,79,8.1,11.0,93,0.00,,,0.00,0.00,meteobridge,2018-11-19 11:54:53,
2018-11-19 03:59:51,51.4,49.5,30.04,SE,136,2.0,3.0,93,0.00,,,0.00,0.00,meteobridge,2018-11-19 11:59:51,
2018-11-19 04:04:55,51.3,49.3,30.04,ENE,78,0.9,3.0,93,0.00,,,0.00,0.00,meteobridge,2018-11-19 12:04:55,
2018-11-19 04:09:55,51.1,49.1,30.04,ENE,78,0.9,3.0,93,0.00,,,0.00,0.00,meteobridge,2018-11-19 12:09:55,
2018-11-19 04:14:55,50.7,49.1,30.04,ESE,113,4.0,4.0,94,0.00,,,0.00,0.00,meteobridge,2018-11-19 12:14:55,
2018-11-19 04:19:55,50.7,49.1,30.04,ESE,112,6.9,8.0,94,0.00,,,0.00,0.00,meteobridge,2018-11-19 12:19:55,
2018-11-19 04:24:55,50.4,48.7,30.03,NNE,22,2.9,8.0,94,0.00,,,0.00,0.00,meteobridge,2018-11-19 12:24:55,
2018-11-19 04:29:55,50.2,48.6,30.03,NE,53,2.9,8.0,94,0.00,,,0.00,0.00,meteobridge,2018-11-19 12:29:55,
2018-11-19 04:34:55,50.2,48.6,30.03,NNE,23,4.0,8.0,94,0.00,,,0.00,0.00,meteobridge,2018-11-19 12:34:55,
2018-11-19 04:39:51,49.8,48.4,30.03,NNW,341,0.9,4.0,95,0.00,,,0.00,0.00,meteobridge,2018-11-19 12:39:51,
2018-11-19 04:44:57,49.8,48.4,30.03,North,351,2.0,10.0,95,0.00,,,0.00,0.00,meteobridge,2018-11-19 12:44:57,
2018-11-19 04:49:57,49.8,48.4,30.04,ENE,59,4.0,5.0,95,0.00,,,0.00,0.00,meteobridge,2018-11-19 12:49:57,
2018-11-19 04:54:53,49.6,48.2,30.04,NNW,329,0.9,7.0,95,0.00,,,0.00,0.00,meteobridge,2018-11-19 12:54:53,
2018-11-19 04:59:55,49.6,48.2,30.04,NNW,331,0.0,2.0,95,0.00,,,0.00,0.00,meteobridge,2018-11-19 12:59:55,
2018-11-19 05:04:53,49.5,48.0,30.04,ENE,72,2.0,4.0,95,0.00,,,0.00,0.00,meteobridge,2018-11-19 13:04:53,
2018-11-19 05:09:57,49.5,48.0,30.04,ESE,108,4.9,6.0,95,0.00,,,0.00,0.00,meteobridge,2018-11-19 13:09:57,
2018-11-19 05:14:57,49.3,47.8,30.03,NNE,27,2.9,10.0,95,0.00,,,0.00,0.00,meteobridge,2018-11-19 13:14:57,
2018-11-19 05:19:55,49.3,47.7,30.03,East,87,10.1,14.0,94,0.00,,,0.00,0.00,meteobridge,2018-11-19 13:19:55,
2018-11-19 05:24:55,49.5,47.8,30.03,East,84,15.0,18.0,94,0.00,,,0.00,0.00,meteobridge,2018-11-19 13:24:55,
2018-11-19 05:29:53,49.6,47.7,30.03,ESE,103,11.0,17.0,93,0.00,,,0.00,0.00,meteobridge,2018-11-19 13:29:53,
2018-11-19 05:34:53,49.8,47.8,30.03,East,86,16.1,17.0,93,0.00,,,0.00,0.00,meteobridge,2018-11-19 13:34:53,
2018-11-19 05:39:53,49.8,47.8,30.03,East,90,14.1,18.0,93,0.00,,,0.00,0.00,meteobridge,2018-11-19 13:39:53,
2018-11-19 05:44:53,49.8,47.8,30.03,East,96,14.1,22.0,93,0.00,,,0.00,0.00,meteobridge,2018-11-19 13:44:53,
2018-11-19 05:49:53,49.8,47.8,30.03,East,92,17.0,19.0,93,0.00,,,0.00,0.00,meteobridge,2018-11-19 13:49:53,
2018-11-19 05:54:57,49.8,47.8,30.03,East,90,8.1,13.0,93,0.00,,,0.00,0.00,meteobridge,2018-11-19 13:54:57,
2018-11-19 05:59:57,49.8,48.2,30.03,East,88,8.9,13.0,94,0.00,,,0.00,0.00,meteobridge,2018-11-19 13:59:57,
2018-11-19 06:04:51,49.8,48.2,30.03,East,90,11.0,15.0,94,0.00,,,0.00,0.00,meteobridge,2018-11-19 14:04:51,
2018-11-19 06:09:55,49.8,48.2,30.03,ENE,61,8.1,15.0,94,0.00,,,0.00,0.00,meteobridge,2018-11-19 14:09:55,
2018-11-19 06:14:55,49.8,48.2,30.03,East,97,16.1,16.0,94,0.00,,,0.00,0.00,meteobridge,2018-11-19 14:14:55,
2018-11-19 06:19:55,50.0,48.4,30.03,East,99,14.1,17.0,94,0.00,,,0.00,0.00,meteobridge,2018-11-19 14:19:55,
2018-11-19 06:24:43,50.0,48.6,30.03,East,101,10.1,15.0,95,0.00,,,0.00,0.00,meteobridge,2018-11-19 14:24:43,
2018-11-19 06:29:49,50.0,48.6,30.03,East,85,11.0,16.0,95,0.00,,,0.00,0.00,meteobridge,2018-11-19 14:29:49,
2018-11-19 06:34:59,50.0,48.6,30.03,East,93,19.0,22.0,95,0.00,,,0.00,0.00,meteobridge,2018-11-19 14:34:59,
2018-11-19 06:39:57,49.8,48.4,30.02,East,80,14.1,22.0,95,0.00,,,0.00,0.00,meteobridge,2018-11-19 14:39:57,
2018-11-19 06:44:53,50.0,48.6,30.03,ESE,103,14.1,24.0,95,0.00,,,0.00,0.00,meteobridge,2018-11-19 14:44:53,